Saturday, September 20, 2014
10:02 UTC
  |  Log In   |  Register Free
Airport Search:

Owosso Community Airport
(KRNP)

Owosso Community Airport Diagram
No Airport Diagram Available

FAA data valid effective September 18, 2014 - November 13, 2014 (unless otherwise noted).

 
 
 
 
 
 
 
 
 
 
 
 
 
 

Current Aviation Weather for Owosso Community Airport (KRNP)

The most recent METAR observation for KRNP was updated at: 0917
METAR Summary (Translated METAR)
KRNP
200854Z AUTO 20007KT 10SM SCT100 14/09 A2994 RMK AO2 T01350086
KFNT
200853Z AUTO 20009G15KT 10SM BKN100 BKN110 16/08 A2995 RMK AO2 SLP141 T01610083 58009
(17.4 nm SE from KRNP)
KOZW
200855Z AUTO 21007KT 10SM SCT110 13/09 A2997 RMK AO2 T01340087
(22.9 nm SE from KRNP)
TAF Summary (Translated TAF)
KFNT
(17.4 nm SE from KRNP)
200520Z 2006/2106 19009KT P6SM SCT150 BKN250 FM201500 23014G25KT P6SM SCT040 BKN120 FM202100 23012KT 6SM SHRA BKN040 OVC060 PROB30 2021/2024 3SM TSRA OVC040CB FM210100 24008KT P6SM BKN025 OVC040
  Airport Weather Conditions for KRNP

 Current Weather at RNP
56° F
Partly Cloudy
South winds at 6.9 mph
RNP NOAA Radar

Pressure: 29.96 in
Humidity: 75%
Wind: South at 6.9 MPH (6 KT)
Dew Point: 48.2°F
Visibility: 10.00 mi


Airport Weather Forecast for KRNP

Translated METAR and TAF for KRNP
Translated METAR for KRNP (0956 UTC 20 September 2014)
found at http://aviationweather.gov/adds/metars/
 
METAR text: KRNP 200934Z AUTO 20008KT 10SM BKN100 14/09 A2994 RMK AO2 T01390086
Conditions at: KRNP (OWOSSO , MI, US) observed 0934 UTC 20 September 2014
Temperature: 13.9°C (57°F)
Dewpoint: 8.6°C (47°F) [RH = 70%]
Pressure (altimeter): 29.94 inches Hg (1014.0 mb)
Winds: from the SSW (200 degrees) at 9 MPH (8 knots; 4.2 m/s)
Visibility: 10 or more miles (16+ km)
Ceiling: 10000 feet AGL
Clouds: broken clouds at 10000 feet AGL
Weather: automated observation with no human augmentation;
there may or may not be significant weather present at this time
Translated TAF for KRNP

There is no translated TAF available for this airport

Find All Airport Services Find A Hotel Find A Rental Car Find A Golf Course Find A Restaurant $100 Hamburger



FBO's on the Field
FBO Company Facility Photos Services Transportation Aviation Fuel Prices: Prices include tax
Catering Weather Repair Courtesy Rental Type 100LL JetA JetA+ MOGAS 8087
 
Owosso Community Airport

This FBO has not yet been rated
FS:Avfuel
Last Updated: Aug-21
Login to update fuel prices
SS:
Contact Owosso Community AirportMore FBO Information
 
Add another FBO Facility Photos Catering Weather Repair Courtesy Rental Type 100LL JetA JetA+ MOGAS 8087
Services Transportation Aviation Fuel Prices: Prices include tax


model-print
model-print
model-print
model-print